Time;durP1;ratioP1;P1;durP2;ratioP2;P2;SDS_P1;SDS_P2;PMS_P1;PMS_P2;Temp;Humidity;BMP_temperature;BMP_pressure;BME280_temperature;BME280_humidity;BME280_pressure;Samples;Min_cycle;Max_cycle;Signal;HPM_P1;HPM_P2
2021/12/21 00:00:57;;;;;;;17.58;3.72;;;-1.20;99.90;;;-2.53;100.00;98393.41;4984021;28;20112;-70
2021/12/21 00:03:25;;;;;;;10.25;3.40;;;-1.30;99.90;;;-2.57;100.00;98392.47;4983111;28;20074;-70
2021/12/21 00:05:54;;;;;;;13.27;3.08;;;;;;;-2.60;100.00;98384.78;4978653;28;20054;-70
2021/12/21 00:08:22;;;;;;;13.25;3.50;;;;;;;-2.52;100.00;98384.94;4983341;28;20077;-70
2021/12/21 00:11:11;;;;;;;16.65;3.67;;;;;;;-2.56;100.00;98384.00;4977458;28;20053;-70
2021/12/21 00:16:45;;;;;;;21.00;4.38;;;;;;;-2.58;100.00;98382.25;4983833;28;20077;-70
2021/12/21 00:22:06;;;;;;;17.73;4.47;;;;;;;-2.54;100.00;98372.19;4959856;28;20541;-70
2021/12/21 00:24:44;;;;;;;14.93;3.75;;;;;;;-2.54;100.00;98374.72;4981309;28;20370;-70
2021/12/21 00:27:13;;;;;;;21.55;4.35;;;-1.50;99.90;;;-2.66;100.00;98369.38;4982440;28;20097;-70
2021/12/21 00:29:42;;;;;;;22.15;4.38;;;-1.40;99.90;;;-2.56;100.00;98368.75;4973562;28;20582;-70
2021/12/21 00:32:10;;;;;;;16.60;3.80;;;-1.30;99.90;;;-2.54;100.00;98359.47;4977213;28;20078;-69
2021/12/21 00:34:38;;;;;;;13.48;3.80;;;-1.30;99.90;;;-2.54;100.00;98356.09;4981645;28;20465;-70
2021/12/21 00:37:05;;;;;;;16.13;4.15;;;-1.40;99.90;;;-2.48;100.00;98358.78;4987841;28;20054;-70
2021/12/21 00:39:33;;;;;;;18.02;4.32;;;-1.30;99.90;;;-2.32;100.00;98354.88;4986805;28;20262;-70
2021/12/21 00:42:01;;;;;;;16.80;4.15;;;-1.30;99.90;;;-2.39;100.00;98353.88;4979335;28;20046;-70
2021/12/21 00:44:28;;;;;;;14.27;4.55;;;-1.30;99.90;;;-2.42;100.00;98353.78;4984558;28;20082;-70
2021/12/21 00:46:55;;;;;;;15.23;3.90;;;-1.20;99.90;;;-2.46;100.00;98351.16;4979154;28;20472;-70
2021/12/21 00:49:24;;;;;;;14.90;3.95;;;-1.30;99.90;;;-2.49;100.00;98353.63;4978078;28;20302;-69
2021/12/21 00:51:51;;;;;;;11.88;3.20;;;-1.30;99.90;;;-2.46;100.00;98346.94;4986070;28;20055;-70
2021/12/21 00:54:18;;;;;;;17.10;4.63;;;-1.30;99.90;;;-2.43;100.00;98346.16;4987393;28;20129;-70
2021/12/21 00:56:45;;;;;;;18.55;4.50;;;-1.30;99.90;;;-2.57;100.00;98345.88;4976024;28;20077;-70
2021/12/21 00:59:13;;;;;;;13.38;3.85;;;-1.30;99.90;;;-2.56;100.00;98345.03;4981829;28;20197;-70
2021/12/21 01:01:41;;;;;;;14.93;3.78;;;-1.30;99.90;;;-2.55;100.00;98336.59;4982464;28;20053;-70
2021/12/21 01:04:20;;;;;;;12.07;3.33;;;;;;;-2.66;100.00;98335.50;4978857;28;20518;-70
2021/12/21 01:07:05;;;;;;;16.05;4.07;;;-1.60;99.90;;;-2.72;100.00;98335.34;4980644;28;20168;-69
2021/12/21 01:12:18;;;;;;;17.15;4.45;;;-1.70;99.90;;;-2.67;100.00;98333.75;4984744;28;20129;-69
2021/12/21 01:19:56;;;;;;;16.85;4.57;;;;;;;-2.77;100.00;98332.72;4985917;28;20058;-69
2021/12/21 01:25:22;;;;;;;19.98;4.68;;;;;;;-2.79;100.00;98339.44;4983586;28;20141;-69
2021/12/21 01:28:10;;;;;;;14.60;4.07;;;;;;;-2.76;100.00;98327.66;4983712;28;20384;-69
2021/12/21 01:30:50;;;;;;;20.73;4.18;;;;;;;-2.80;100.00;98340.28;4983389;28;20128;-69
2021/12/21 01:35:54;;;;;;;14.05;4.00;;;;;;;-2.82;100.00;98324.97;4984631;28;20086;-69
2021/12/21 01:43:39;;;;;;;10.20;3.50;;;;;;;-2.94;100.00;98329.81;4988097;28;20058;-69
2021/12/21 01:51:39;;;;;;;14.60;4.47;;;;;;;-3.06;100.00;98335.44;4984645;28;20133;-69
2021/12/21 01:54:06;;;;;;;13.52;4.15;;;;;;;-3.08;100.00;98333.69;4984583;28;20134;-69
2021/12/21 01:56:34;;;;;;;13.00;3.92;;;;;;;-3.17;100.00;98334.31;4986453;28;21449;-69
2021/12/21 01:59:01;;;;;;;17.83;4.57;;;;;;;-3.08;100.00;98326.94;4985380;28;20046;-69
2021/12/21 02:01:29;;;;;;;16.52;4.10;;;;;;;-3.18;100.00;98327.53;4987468;28;20046;-69
2021/12/21 02:03:56;;;;;;;12.93;4.07;;;;;;;-3.14;100.00;98329.31;4982979;28;20145;-69
2021/12/21 02:06:27;;;;;;;13.07;4.05;;;;;;;-3.21;100.00;98330.88;4981560;28;20532;-69
2021/12/21 02:08:55;;;;;;;16.60;3.80;;;-2.10;99.90;;;-3.29;100.00;98321.34;4984893;28;20144;-69
2021/12/21 02:11:23;;;;;;;18.25;4.15;;;;;;;-3.40;100.00;98319.41;4987561;28;20109;-69
2021/12/21 02:13:52;;;;;;;15.88;5.20;;;-2.30;99.90;;;-3.40;100.00;98326.16;4986371;28;20062;-69
2021/12/21 02:16:34;;;;;;;15.90;3.97;;;-2.10;99.90;;;-3.36;100.00;98316.09;4973507;28;20501;-69
2021/12/21 02:19:07;;;;;;;21.50;4.60;;;-2.40;99.90;;;-3.57;100.00;98329.13;4967882;28;20472;-69
2021/12/21 02:21:49;;;;;;;17.65;3.28;;;;;;;-3.59;100.00;98327.38;4987262;28;20629;-69
2021/12/21 02:24:21;;;;;;;17.08;3.78;;;;;;;-3.55;100.00;98329.19;4985729;28;20161;-69
2021/12/21 02:27:18;;;;;;;16.08;3.95;;;-2.30;99.90;;;-3.59;100.00;98322.31;4981704;28;20129;-69
2021/12/21 02:29:45;;;;;;;14.13;3.70;;;-2.50;99.90;;;-3.70;100.00;98316.09;4991644;28;20459;-69
2021/12/21 02:32:12;;;;;;;14.75;3.40;;;-2.60;99.90;;;-3.72;100.00;98313.50;4988231;28;20161;-69
2021/12/21 02:34:44;;;;;;;13.95;3.42;;;-2.60;99.90;;;-3.68;100.00;98315.31;4987372;28;20130;-69
2021/12/21 02:37:12;;;;;;;15.40;4.25;;;-2.70;99.90;;;-3.72;100.00;98318.59;4985139;28;20078;-69
2021/12/21 02:39:39;;;;;;;11.60;3.28;;;-2.70;99.90;;;-3.68;100.00;98315.31;4979220;28;20070;-69
2021/12/21 02:42:07;;;;;;;11.05;3.83;;;-2.60;99.90;;;-3.57;100.00;98307.97;4988126;28;20125;-69
2021/12/21 02:44:34;;;;;;;22.92;4.88;;;-2.60;99.90;;;-3.58;100.00;98307.13;4982730;28;20137;-69
2021/12/21 02:47:01;;;;;;;23.25;5.70;;;-2.60;99.90;;;-3.60;100.00;98311.31;4985821;28;20480;-69
2021/12/21 02:49:28;;;;;;;12.38;4.00;;;-2.60;99.90;;;-3.55;100.00;98313.09;4986746;28;20056;-69
2021/12/21 02:51:55;;;;;;;12.98;4.35;;;-2.50;99.90;;;-3.59;100.00;98314.69;4989279;28;20038;-69
2021/12/21 02:54:22;;;;;;;17.92;4.25;;;-2.50;99.90;;;-3.61;100.00;98311.25;4988033;28;20067;-69
2021/12/21 02:56:49;;;;;;;15.65;4.68;;;-2.50;99.90;;;-3.58;100.00;98307.13;4981047;28;20133;-69
2021/12/21 02:59:16;;;;;;;18.35;4.30;;;-2.60;99.90;;;-3.60;100.00;98306.22;4985940;28;20625;-69
2021/12/21 03:01:43;;;;;;;19.55;4.80;;;-2.60;99.90;;;-3.63;100.00;98308.66;4991197;28;20431;-69
2021/12/21 03:04:10;;;;;;;17.38;4.28;;;-2.60;99.90;;;-3.61;100.00;98309.56;4990755;28;20249;-69
2021/12/21 03:07:16;;;;;;;16.42;4.47;;;-2.60;99.90;;;-3.66;100.00;98303.53;4990624;28;20050;-69
2021/12/21 03:09:41;;;;;;;20.50;5.25;;;-2.60;99.90;;;-3.76;100.00;98299.06;4989611;28;20129;-69
2021/12/21 03:12:32;;;;;;;16.10;4.15;;;-2.70;99.90;;;-3.76;100.00;98293.09;4989090;28;20089;-69
2021/12/21 03:14:59;;;;;;;14.88;5.43;;;-2.70;99.90;;;-3.72;100.00;98292.34;4985323;28;20150;-69
2021/12/21 03:17:26;;;;;;;15.70;4.00;;;-2.70;99.90;;;-3.72;100.00;98290.69;4984774;28;20486;-69
2021/12/21 03:19:53;;;;;;;11.40;3.53;;;-2.70;99.90;;;-3.76;100.00;98291.44;4987921;28;20112;-69
2021/12/21 03:22:20;;;;;;;14.27;4.22;;;-2.70;99.90;;;-3.75;100.00;98295.69;4990826;28;20085;-69
2021/12/21 03:24:47;;;;;;;19.33;4.35;;;-2.60;99.90;;;-3.62;100.00;98294.31;4987695;28;20047;-69
2021/12/21 03:27:14;;;;;;;15.88;4.18;;;-2.60;99.90;;;-3.55;100.00;98297.88;4993947;28;20081;-69
2021/12/21 03:29:41;;;;;;;14.45;4.65;;;-2.50;99.90;;;-3.50;100.00;98288.69;4991940;28;20141;-69
2021/12/21 03:32:09;;;;;;;16.98;4.55;;;-2.50;99.90;;;-3.54;100.00;98285.19;4989275;28;20423;-69
2021/12/21 03:34:36;;;;;;;16.70;4.47;;;-2.50;99.90;;;-3.58;100.00;98296.09;4989370;28;20050;-69
2021/12/21 03:37:10;;;;;;;21.60;5.35;;;-2.50;99.90;;;-3.50;100.00;98279.38;4988385;28;20347;-69
2021/12/21 03:39:39;;;;;;;17.95;4.00;;;-2.50;99.90;;;-3.48;100.00;98280.28;4985906;28;20158;-69
2021/12/21 03:42:07;;;;;;;9.50;4.13;;;-2.40;99.90;;;-3.54;100.00;98281.81;4991135;28;20050;-69
2021/12/21 03:44:34;;;;;;;16.42;4.93;;;-2.50;99.90;;;-3.56;100.00;98284.31;4988638;28;20074;-69
2021/12/21 03:47:02;;;;;;;11.93;4.18;;;-2.50;99.90;;;-3.67;100.00;98280.63;4988390;28;20054;-69
2021/12/21 03:52:10;;;;;;;18.25;4.15;;;-2.60;99.90;;;-3.61;100.00;98284.19;4990064;28;20089;-69
2021/12/21 03:54:40;;;;;;;18.45;5.13;;;-2.60;99.90;;;-3.57;100.00;98278.38;4987170;28;20134;-69
2021/12/21 03:57:08;;;;;;;16.90;5.30;;;-2.60;99.90;;;-3.58;100.00;98283.41;4980051;28;20049;-69
2021/12/21 03:59:35;;;;;;;20.23;5.57;;;-2.60;99.90;;;-3.63;100.00;98285.81;4985769;28;20146;-69
2021/12/21 04:02:05;;;;;;;18.60;5.10;;;-2.50;99.90;;;-3.62;100.00;98279.94;4989553;28;20142;-69
2021/12/21 04:04:31;;;;;;;15.57;4.38;;;-2.60;99.90;;;-3.62;100.00;98279.09;4988347;28;20133;-69
2021/12/21 04:06:58;;;;;;;15.77;4.32;;;-2.60;99.90;;;-3.71;100.00;98281.41;4990139;28;20054;-69
2021/12/21 04:09:25;;;;;;;13.73;4.18;;;-2.60;99.90;;;-3.60;100.00;98278.31;4987664;28;20344;-69
2021/12/21 04:11:52;;;;;;;15.07;5.13;;;-2.60;99.90;;;-3.66;100.00;98280.69;4987083;28;20404;-69
2021/12/21 04:14:20;;;;;;;16.33;5.00;;;-2.60;99.90;;;-3.68;100.00;98282.31;4990574;28;20125;-69
2021/12/21 04:16:47;;;;;;;16.48;5.18;;;-2.60;99.90;;;-3.70;100.00;98271.28;4988278;28;20576;-69
2021/12/21 04:19:15;;;;;;;15.52;5.18;;;-2.60;99.90;;;-3.81;100.00;98275.22;4985490;28;20104;-69
2021/12/21 04:21:41;;;;;;;20.45;5.07;;;-2.70;99.90;;;-3.88;100.00;98281.81;4989480;28;20057;-69
2021/12/21 04:24:08;;;;;;;11.85;4.78;;;-2.70;99.90;;;-3.80;100.00;98266.81;4987639;28;20142;-69
2021/12/21 04:26:36;;;;;;;18.00;4.43;;;-2.70;99.90;;;-3.85;100.00;98269.22;4984708;28;20077;-69
2021/12/21 04:29:03;;;;;;;11.95;3.92;;;-2.80;99.90;;;-3.85;100.00;98265.84;4990058;28;20082;-69
2021/12/21 04:31:31;;;;;;;12.75;4.13;;;-2.70;99.90;;;-3.87;100.00;98270.00;4988774;28;20049;-69
2021/12/21 04:33:59;;;;;;;13.93;3.90;;;-2.70;99.90;;;-3.94;100.00;98265.59;4988322;28;20133;-69
2021/12/21 04:36:26;;;;;;;20.52;4.75;;;-2.80;99.90;;;-3.98;100.00;98268.88;4989560;28;20090;-69
2021/12/21 04:38:54;;;;;;;16.80;4.70;;;-2.90;99.90;;;-4.05;100.00;98270.41;4986261;28;20517;-69
2021/12/21 04:43:53;;;;;;;18.08;4.63;;;-3.00;99.90;;;-4.11;100.00;98272.75;4988601;28;20459;-69
2021/12/21 04:46:21;;;;;;;14.77;4.07;;;-3.00;99.90;;;-4.21;100.00;98275.06;4981930;28;20078;-69
2021/12/21 04:48:48;;;;;;;14.70;3.92;;;-3.00;99.90;;;-4.13;100.00;98270.16;4984781;28;20061;-69
2021/12/21 04:51:16;;;;;;;18.58;5.10;;;-3.00;99.90;;;-4.13;100.00;98269.31;4983715;28;20403;-69
2021/12/21 04:53:43;;;;;;;12.43;4.10;;;-3.00;99.90;;;-4.09;100.00;98266.91;4987052;28;20073;-69
2021/12/21 04:56:10;;;;;;;12.15;4.22;;;-3.00;99.90;;;-4.09;100.00;98266.06;4986097;28;20133;-69
2021/12/21 04:58:37;;;;;;;18.73;4.00;;;-3.00;99.90;;;-4.08;100.00;98268.63;4995392;28;20136;-69
2021/12/21 05:01:04;;;;;;;21.98;4.18;;;-3.00;99.90;;;-4.08;100.00;98263.56;4984833;28;20077;-69
2021/12/21 05:03:31;;;;;;;14.57;4.20;;;-3.00;99.90;;;-4.07;100.00;98275.41;4983621;28;20081;-69
2021/12/21 05:06:00;;;;;;;17.05;4.35;;;-3.00;99.90;;;-4.02;100.00;98271.31;4984316;28;20058;-69
2021/12/21 05:08:32;;;;;;;14.00;4.13;;;-3.00;99.90;;;-4.01;100.00;98269.66;4989463;28;20080;-69
2021/12/21 05:11:03;;;;;;;12.13;3.78;;;-3.00;99.90;;;-4.02;100.00;98271.31;4984880;28;20078;-69
2021/12/21 05:13:34;;;;;;;15.98;4.47;;;-3.00;99.90;;;-4.00;100.00;98267.16;4992285;28;20042;-69
2021/12/21 05:16:02;;;;;;;13.57;3.80;;;-3.00;99.90;;;-4.07;100.00;98257.66;4989515;28;20136;-69
2021/12/21 05:18:32;;;;;;;16.83;3.90;;;-2.90;99.90;;;-3.95;100.00;98263.88;4993873;28;20054;-69
2021/12/21 05:21:00;;;;;;;15.07;4.38;;;-2.90;99.90;;;-3.92;100.00;98267.38;4990254;28;20074;-69
2021/12/21 05:23:27;;;;;;;14.90;3.85;;;-2.90;99.90;;;-4.04;100.00;98261.97;4991102;28;20475;-69
2021/12/21 05:25:54;;;;;;;16.50;4.25;;;-2.90;99.90;;;-4.03;100.00;98266.22;4974182;28;20137;-69
2021/12/21 05:28:21;;;;;;;14.05;4.25;;;-2.90;99.90;;;-4.02;100.00;98267.94;4988428;28;20127;-69
2021/12/21 05:30:48;;;;;;;15.27;3.70;;;-2.90;99.90;;;-4.04;100.00;98267.91;4990260;28;20126;-69
2021/12/21 05:33:16;;;;;;;12.45;3.97;;;-2.90;99.90;;;-3.97;100.00;98268.91;4993366;28;20698;-69
2021/12/21 05:35:43;;;;;;;15.77;3.80;;;-2.90;99.90;;;-4.08;100.00;98272.81;4989068;28;20042;-69
2021/12/21 05:38:12;;;;;;;13.18;4.50;;;-2.90;99.90;;;-3.99;100.00;98270.56;4993205;28;20200;-69
2021/12/21 05:40:43;;;;;;;18.42;4.55;;;-2.90;99.90;;;-4.10;100.00;98282.94;4988176;28;20085;-69
2021/12/21 05:43:12;;;;;;;15.88;3.88;;;-2.90;99.90;;;-4.12;100.00;98278.66;4987285;28;20082;-69
2021/12/21 05:45:39;;;;;;;16.60;3.78;;;-3.00;99.90;;;-4.14;100.00;98285.38;4990571;28;20050;-69
2021/12/21 05:48:07;;;;;;;13.43;4.38;;;-3.00;99.90;;;-4.15;100.00;98283.63;4990890;28;20129;-69
2021/12/21 05:50:34;;;;;;;15.18;3.83;;;-3.10;99.90;;;-4.17;100.00;98290.34;4987722;28;20042;-68
2021/12/21 05:53:02;;;;;;;11.68;3.75;;;-3.10;99.90;;;-4.22;100.00;98295.28;4991637;28;20463;-68
2021/12/21 05:55:29;;;;;;;14.82;3.60;;;-3.10;99.90;;;-4.24;100.00;98302.88;4990655;28;20133;-68
2021/12/21 05:57:57;;;;;;;12.75;3.95;;;-3.10;99.90;;;-4.21;100.00;98299.53;4990811;28;20181;-69
2021/12/21 06:00:29;;;;;;;19.05;3.90;;;-3.10;99.90;;;-4.24;100.00;98299.47;4989389;28;20137;-69
2021/12/21 06:02:57;;;;;;;15.93;3.40;;;-3.10;99.90;;;-4.37;100.00;98303.34;4992032;28;20058;-68
2021/12/21 06:05:24;;;;;;;11.15;3.92;;;-3.20;99.90;;;-4.46;100.00;98303.94;4987693;28;20069;-69
2021/12/21 06:07:53;;;;;;;12.73;3.92;;;-3.20;99.90;;;-4.50;100.00;98291.97;4992466;28;20132;-68
2021/12/21 06:10:32;;;;;;;13.43;3.97;;;-3.30;99.90;;;-4.50;100.00;98297.03;4988935;28;20482;-68
2021/12/21 06:15:51;;;;;;;14.60;3.85;;;-3.50;99.90;;;-4.55;100.00;98301.13;4984928;28;20448;-69
2021/12/21 06:24:40;;;;;;;13.00;4.32;;;-3.40;99.90;;;-4.35;100.00;98295.78;4989296;28;20070;-69
2021/12/21 06:26:38;;;;;;;16.38;4.13;;;-3.40;99.90;;;-4.34;100.00;98303.41;4989594;28;20133;-69
2021/12/21 06:29:05;;;;;;;10.27;4.32;;;-3.30;99.90;;;-4.35;100.00;98299.16;4987381;28;20474;-69
2021/12/21 06:31:33;;;;;;;12.45;3.88;;;-3.30;99.90;;;-4.36;100.00;98296.59;4991909;28;20060;-69
2021/12/21 06:34:00;;;;;;;12.57;4.18;;;-3.30;99.90;;;-4.37;100.00;98294.88;4991927;28;20133;-69
2021/12/21 06:36:28;;;;;;;14.80;4.35;;;-3.30;99.90;;;-4.29;100.00;98293.41;4989769;28;20050;-69
2021/12/21 06:38:55;;;;;;;14.35;4.53;;;-3.30;99.90;;;-4.22;100.00;98295.28;4989731;28;20073;-69
2021/12/21 06:41:23;;;;;;;14.25;4.40;;;-3.20;99.90;;;-4.24;100.00;98296.94;4989058;28;20060;-69
2021/12/21 06:43:50;;;;;;;10.15;4.47;;;-3.20;99.90;;;-4.13;100.00;98287.06;4990009;28;20133;-69
2021/12/21 06:51:58;;;;;;;15.02;4.47;;;-3.10;99.90;;;-4.32;100.00;98289.09;4986648;28;20276;-69
2021/12/21 06:54:24;;;;;;;14.02;5.05;;;-3.10;99.90;;;-4.29;100.00;98291.75;4987575;28;20074;-69
2021/12/21 06:56:52;;;;;;;16.35;4.10;;;-3.20;99.90;;;-4.33;100.00;98294.13;4983424;28;20130;-69
2021/12/21 06:59:19;;;;;;;10.15;4.07;;;-3.20;99.90;;;-4.26;100.00;98298.56;4986845;28;20594;-69
2021/12/21 07:01:49;;;;;;;14.88;4.38;;;-3.20;99.90;;;-4.34;100.00;98290.75;4986947;28;20584;-69
2021/12/21 07:04:20;;;;;;;15.15;3.72;;;-3.20;99.90;;;-4.28;100.00;98295.13;4989973;28;20501;-69
2021/12/21 07:06:47;;;;;;;15.85;3.90;;;-3.20;99.90;;;-4.35;100.00;98301.69;4991934;28;20137;-69
2021/12/21 07:09:35;;;;;;;14.55;4.28;;;-3.20;99.90;;;-4.32;100.00;98294.19;4973737;28;20082;-69
2021/12/21 07:20:07;;;;;;;13.13;4.45;;;-3.20;99.90;;;-4.41;100.00;98304.06;4990132;28;20132;-69
2021/12/21 07:22:34;;;;;;;15.85;4.65;;;-3.20;99.90;;;-4.37;100.00;98302.47;4968836;28;20078;-69
2021/12/21 07:25:01;;;;;;;17.00;5.15;;;-3.20;99.90;;;-4.40;100.00;98305.78;4980054;28;20133;-68
2021/12/21 07:27:28;;;;;;;12.93;4.38;;;-3.20;99.90;;;-4.23;100.00;98311.31;4984126;28;20528;-69
2021/12/21 07:29:55;;;;;;;19.88;5.25;;;-3.20;99.90;;;-4.27;100.00;98302.75;4983458;28;20068;-69
2021/12/21 07:32:22;;;;;;;14.18;5.22;;;-3.20;99.90;;;-4.29;100.00;98306.94;4991175;28;20165;-69
2021/12/21 07:34:49;;;;;;;13.75;4.93;;;-3.20;99.90;;;-4.29;100.00;98309.50;4986662;28;20121;-69
2021/12/21 07:37:17;;;;;;;15.75;4.75;;;-3.20;99.90;;;-4.34;100.00;98303.41;4983996;28;20475;-69
2021/12/21 07:39:44;;;;;;;15.90;4.75;;;-3.20;99.90;;;-4.36;100.00;98306.72;4985295;28;20412;-68
2021/12/21 07:42:19;;;;;;;14.57;4.10;;;-3.30;99.90;;;-4.45;100.00;98305.66;4985312;28;20520;-69
2021/12/21 07:44:47;;;;;;;11.02;3.85;;;-3.30;99.90;;;-4.37;100.00;98307.56;4986007;28;20090;-69
2021/12/21 07:47:17;;;;;;;13.70;4.22;;;-3.30;99.90;;;-4.30;100.00;98302.69;4986527;28;20137;-69
2021/12/21 07:49:47;;;;;;;19.35;5.00;;;-3.20;99.90;;;-4.30;100.00;98304.38;4988337;28;20042;-69
2021/12/21 07:52:18;;;;;;;13.27;5.22;;;-3.20;99.90;;;-4.32;100.00;98304.31;4983614;28;20443;-69
2021/12/21 07:54:45;;;;;;;13.55;4.60;;;-3.20;99.90;;;-4.31;100.00;98305.16;4985383;28;20047;-69
2021/12/21 07:57:13;;;;;;;15.82;4.47;;;-3.20;99.90;;;-4.33;100.00;98310.22;4981972;28;20054;-69
2021/12/21 07:59:40;;;;;;;11.80;4.40;;;-3.10;99.90;;;-4.17;100.00;98308.06;4987782;28;20503;-69
2021/12/21 08:02:12;;;;;;;21.08;5.55;;;-3.10;99.90;;;-4.20;100.00;98316.47;4983576;28;20128;-69
2021/12/21 08:04:41;;;;;;;14.50;4.57;;;-3.10;99.90;;;-4.26;100.00;98321.38;4986744;28;20050;-68
2021/12/21 08:07:14;;;;;;;11.98;4.38;;;-3.10;99.90;;;-4.33;100.00;98317.81;4988188;28;20054;-69
2021/12/21 08:09:45;;;;;;;16.52;5.18;;;-3.10;99.90;;;-4.32;100.00;98319.53;4985448;28;20082;-69
2021/12/21 08:12:17;;;;;;;16.58;4.82;;;-3.20;99.90;;;-4.46;100.00;98313.22;4986828;28;20069;-68
2021/12/21 08:14:48;;;;;;;20.13;4.80;;;-3.20;99.90;;;-4.39;100.00;98321.84;4986515;28;20050;-69
2021/12/21 08:17:17;;;;;;;14.70;5.25;;;-3.20;99.90;;;-4.37;100.00;98312.63;4981984;28;20413;-69
2021/12/21 08:19:46;;;;;;;13.43;4.00;;;-3.20;99.90;;;-4.38;100.00;98319.34;4987110;28;20050;-69
2021/12/21 08:22:13;;;;;;;11.50;3.50;;;-3.20;99.90;;;-4.44;100.00;98316.66;4988842;28;20133;-69
2021/12/21 08:24:43;;;;;;;18.25;5.22;;;-3.20;99.90;;;-4.41;100.00;98319.25;4985415;28;20109;-69
2021/12/21 08:27:10;;;;;;;14.73;5.57;;;-3.30;99.90;;;-4.38;100.00;98314.28;4985478;28;20097;-69
2021/12/21 08:29:37;;;;;;;13.10;4.13;;;-3.30;99.90;;;-4.35;100.00;98321.13;4986901;28;20121;-69
2021/12/21 08:32:05;;;;;;;17.05;4.60;;;-3.20;99.90;;;-4.35;100.00;98326.19;4982937;28;20077;-69
2021/12/21 08:34:32;;;;;;;12.32;4.05;;;-3.20;99.90;;;-4.34;100.00;98323.69;4986346;28;20447;-69
2021/12/21 08:36:59;;;;;;;12.70;4.88;;;-3.20;99.90;;;-4.28;100.00;98317.94;4987976;28;20101;-69
2021/12/21 08:39:27;;;;;;;15.38;5.28;;;-3.20;99.90;;;-4.26;100.00;98314.63;4985826;28;20130;-68
2021/12/21 08:41:59;;;;;;;11.63;4.10;;;-3.10;99.90;;;-4.20;100.00;98319.00;4987886;28;20078;-68
2021/12/21 08:44:27;;;;;;;13.45;4.60;;;-3.00;99.90;;;-4.10;100.00;98328.59;4984253;28;20133;-68
2021/12/21 08:46:57;;;;;;;14.20;4.82;;;-2.90;99.90;;;-4.01;100.00;98330.53;4984535;28;20046;-68
2021/12/21 08:49:26;;;;;;;12.98;4.57;;;-2.90;99.90;;;-3.92;100.00;98325.69;4988974;28;20055;-68
2021/12/21 08:51:54;;;;;;;14.52;5.57;;;-2.80;99.90;;;-3.83;100.00;98320.88;4983052;28;20134;-68
2021/12/21 08:54:22;;;;;;;17.33;4.75;;;-2.70;99.90;;;-3.85;100.00;98327.56;4983766;28;20462;-68
2021/12/21 08:56:49;;;;;;;19.40;5.15;;;-2.60;99.90;;;-3.74;100.00;98337.13;4990295;28;20553;-68
2021/12/21 08:59:17;;;;;;;16.13;5.43;;;-2.60;99.90;;;-3.58;100.00;98337.56;4987851;28;20050;-68
2021/12/21 09:01:45;;;;;;;18.85;5.30;;;-2.50;99.90;;;-3.51;100.00;98332.63;4985417;28;20112;-68
2021/12/21 09:04:14;;;;;;;14.38;4.95;;;-2.40;99.90;;;-3.42;100.00;98345.56;4986391;28;20082;-68
2021/12/21 09:06:41;;;;;;;20.92;6.07;;;-2.30;99.90;;;-3.46;100.00;98339.56;4987473;28;20129;-68
2021/12/21 09:09:08;;;;;;;13.82;5.43;;;-2.30;99.90;;;-3.43;100.00;98341.31;4984032;28;20158;-68
2021/12/21 09:11:37;;;;;;;16.20;5.53;;;-2.30;99.90;;;-3.38;100.00;98339.75;4983755;28;20046;-68
2021/12/21 09:14:05;;;;;;;16.35;5.40;;;-2.30;99.90;;;-3.45;100.00;98340.41;4981156;28;20059;-69
2021/12/21 09:16:33;;;;;;;11.10;4.43;;;-2.20;99.90;;;-3.36;100.00;98336.41;4985569;28;20054;-69
2021/12/21 09:19:02;;;;;;;14.13;4.53;;;-2.20;99.90;;;-3.26;100.00;98327.38;4981451;28;20129;-70
2021/12/21 09:21:30;;;;;;;13.65;4.97;;;-2.10;99.90;;;-3.23;100.00;98324.03;4987842;28;20042;-70
2021/12/21 09:23:57;;;;;;;17.67;5.97;;;-2.10;99.90;;;-3.22;100.00;98326.59;4987417;28;20050;-69
2021/12/21 09:26:25;;;;;;;19.67;6.13;;;-2.10;99.90;;;-3.12;100.00;98330.22;4983850;28;20058;-70
2021/12/21 09:28:53;;;;;;;16.65;5.68;;;-2.00;99.90;;;-3.02;100.00;98333.84;4986550;28;20125;-70
2021/12/21 09:31:20;;;;;;;12.57;5.07;;;-1.90;99.90;;;-2.90;100.00;98329.03;4979137;28;20137;-70
2021/12/21 09:33:47;;;;;;;17.33;5.10;;;-1.80;99.90;;;-2.80;100.00;98330.09;4987801;28;20049;-70
2021/12/21 09:36:14;;;;;;;12.25;5.03;;;-1.70;99.90;;;-2.74;100.00;98327.69;4987003;28;20046;-70
2021/12/21 09:38:41;;;;;;;16.35;4.60;;;-1.60;99.90;;;-2.64;100.00;98322.00;4986719;28;20112;-70
2021/12/21 09:41:08;;;;;;;22.13;5.13;;;-1.50;99.90;;;-2.58;100.00;98318.72;4985258;28;20129;-70
2021/12/21 09:43:36;;;;;;;11.32;4.50;;;-1.40;99.90;;;-2.54;100.00;98317.97;4983768;28;20101;-70
2021/12/21 09:46:03;;;;;;;14.57;4.70;;;-1.40;99.90;;;-2.51;100.00;98320.56;4984098;28;20137;-70
2021/12/21 09:48:30;;;;;;;14.15;5.18;;;-1.40;99.90;;;-2.46;100.00;98321.53;4984491;28;20145;-70
2021/12/21 09:50:58;;;;;;;15.80;4.35;;;-1.30;99.90;;;-2.33;100.00;98322.63;4984550;28;20080;-70
2021/12/21 09:53:26;;;;;;;14.45;4.53;;;-1.20;99.90;;;-2.29;100.00;98321.00;4983972;28;20046;-70
2021/12/21 09:55:53;;;;;;;12.32;4.32;;;-1.20;99.90;;;-2.22;100.00;98322.84;4978812;28;20491;-70
2021/12/21 09:58:20;;;;;;;14.43;4.35;;;-1.10;99.90;;;-2.14;100.00;98327.25;4986324;28;20042;-70
2021/12/21 10:00:47;;;;;;;15.77;4.20;;;-1.00;99.90;;;-2.16;100.00;98328.06;4985041;28;20070;-70
2021/12/21 10:03:15;;;;;;;14.05;4.93;;;-1.00;99.90;;;-2.09;100.00;98331.59;4987524;28;20133;-70
2021/12/21 10:05:45;;;;;;;21.92;4.75;;;-1.00;99.90;;;-2.09;100.00;98323.97;4988650;28;20474;-70
2021/12/21 10:08:17;;;;;;;13.65;4.38;;;-1.00;99.90;;;-2.00;100.00;98324.13;4989669;28;20061;-70
2021/12/21 10:10:52;;;;;;;17.53;4.03;;;-0.80;99.90;;;-1.93;100.00;98325.97;4989156;28;20210;-70
2021/12/21 10:13:25;;;;;;;15.80;4.35;;;-0.80;99.90;;;-1.97;100.00;98329.28;4986453;28;20529;-69
2021/12/21 10:16:00;;;;;;;16.70;4.22;;;-0.80;99.90;;;-1.80;100.00;98329.56;4990944;28;20070;-69
2021/12/21 10:18:32;;;;;;;11.75;4.18;;;-0.80;99.90;;;-1.84;100.00;98323.59;4991257;28;20136;-69
2021/12/21 10:21:03;;;;;;;11.90;4.63;;;-0.70;99.90;;;-1.77;100.00;98322.00;4983879;28;20078;-69
2021/12/21 10:23:38;;;;;;;10.82;4.38;;;-0.70;99.90;;;-1.74;100.00;98314.44;4986480;28;20093;-69
2021/12/21 10:26:13;;;;;;;15.85;4.20;;;-0.60;99.90;;;-1.72;100.00;98321.25;4984315;28;20081;-69
2021/12/21 10:28:41;;;;;;;14.27;3.92;;;-0.60;99.90;;;-1.64;100.00;98315.44;5003373;28;20131;-69
2021/12/21 10:31:11;;;;;;;12.52;4.10;;;-0.50;99.90;;;-1.50;100.00;98308.91;4984685;28;20651;-69
2021/12/21 10:33:44;;;;;;;13.35;3.70;;;-0.40;99.90;;;-1.49;100.00;98310.63;4987456;28;20463;-69
2021/12/21 10:36:13;;;;;;;12.32;3.92;;;-0.40;99.90;;;-1.44;100.00;98306.44;4982766;28;20137;-69
2021/12/21 10:39:02;;;;;;;12.95;3.63;;;-0.30;99.90;;;-1.40;100.00;98302.28;5005084;28;20050;-69
2021/12/21 10:41:42;;;;;;;13.77;4.00;;;-0.30;99.90;;;-1.43;100.00;98295.47;4976338;28;20158;-69
2021/12/21 10:44:13;;;;;;;12.23;4.50;;;-0.30;99.90;;;-1.34;100.00;98293.06;4982213;28;20058;-69
2021/12/21 10:46:45;;;;;;;16.27;3.75;;;-0.20;99.90;;;-1.34;100.00;98284.56;4980020;28;20129;-69
2021/12/21 10:49:34;;;;;;;11.77;4.13;;;-0.20;99.90;;;-1.32;100.00;98281.22;4980522;28;20043;-69
2021/12/21 10:52:07;;;;;;;12.30;3.90;;;-0.10;99.90;;;-1.24;100.00;98277.91;4981346;28;20054;-69
2021/12/21 10:54:39;;;;;;;12.38;4.07;;;-0.10;99.90;;;-1.16;100.00;98271.25;4984879;28;20057;-69
2021/12/21 10:57:18;;;;;;;15.30;4.50;;;0.00;99.90;;;-1.19;100.00;98268.66;4980512;28;20468;-69
2021/12/21 10:59:50;;;;;;;14.27;4.47;;;0.00;99.90;;;-1.12;100.00;98267.91;4983996;28;20058;-69
2021/12/21 11:02:28;;;;;;;19.17;5.30;;;0.00;99.90;;;-1.11;100.00;98267.94;4986552;28;20821;-69
2021/12/21 11:05:12;;;;;;;17.48;5.70;;;0.10;99.90;;;-1.14;100.00;98262.81;4989779;28;20073;-69
2021/12/21 11:10:32;;;;;;;14.68;5.78;;;0.20;99.90;;;-1.13;100.00;98258.56;4979255;28;20050;-69
2021/12/21 11:13:11;;;;;;;16.20;5.88;;;0.20;99.90;;;-0.91;100.00;98260.59;4987101;28;20066;-70
2021/12/21 11:15:55;;;;;;;12.07;4.10;;;0.20;99.90;;;-0.88;100.00;98260.63;4981647;28;20213;-70
2021/12/21 11:18:25;;;;;;;10.80;3.75;;;0.30;99.90;;;-0.83;100.00;98264.94;4986289;28;20138;-68
2021/12/21 11:20:55;;;;;;;17.83;4.32;;;0.30;99.90;;;-0.78;100.00;98268.38;4989615;28;20050;-70
2021/12/21 11:23:25;;;;;;;12.23;4.82;;;0.30;99.90;;;-0.81;100.00;98269.22;4988184;28;20057;-67